createdAt,value
2019-04-16T00:00:53.191Z,0
2019-04-16T00:01:53.261Z,0
2019-04-16T00:02:53.302Z,0
2019-04-16T00:03:53.879Z,0
2019-04-16T00:04:56.578Z,0
2019-04-16T00:05:53.495Z,0
2019-04-16T00:06:54.533Z,0
2019-04-16T00:07:53.586Z,0
2019-04-16T00:08:54.108Z,0
2019-04-16T00:09:53.749Z,0
2019-04-16T00:10:53.819Z,0
2019-04-16T00:11:53.879Z,0
2019-04-16T00:12:53.977Z,0
2019-04-16T00:13:54.046Z,0
2019-04-16T00:14:55.125Z,0
2019-04-16T00:15:54.380Z,0
2019-04-16T00:16:54.277Z,0
2019-04-16T00:17:54.356Z,0
2019-04-16T00:18:57.489Z,0
2019-04-16T00:19:55.433Z,0
2019-04-16T00:20:55.565Z,0
2019-04-16T00:21:54.642Z,0
2019-04-16T00:22:54.722Z,0
2019-04-16T00:23:55.778Z,0
2019-04-16T00:24:54.832Z,0
2019-04-16T00:25:55.303Z,0
2019-04-16T00:26:57.618Z,0
2019-04-16T00:27:59.474Z,0
2019-04-16T00:28:55.099Z,0
2019-04-16T00:29:56.139Z,0
2019-04-16T00:30:56.187Z,0
2019-04-16T00:31:56.285Z,0
2019-04-16T00:32:55.364Z,0
2019-04-16T00:33:55.608Z,0
2019-04-16T00:34:55.478Z,0
2019-04-16T00:35:55.564Z,0
2019-04-16T00:36:55.671Z,0
2019-04-16T00:37:55.730Z,0
2019-04-16T00:38:56.924Z,0
2019-04-16T00:39:56.919Z,0
2019-04-16T00:40:55.892Z,0
2019-04-16T00:41:55.989Z,0
2019-04-16T00:42:56.064Z,0
2019-04-16T00:43:56.145Z,0
2019-04-16T00:44:56.191Z,0
2019-04-16T00:45:56.273Z,0
2019-04-16T00:46:56.688Z,0
2019-04-16T00:47:56.464Z,0
2019-04-16T00:48:56.526Z,0
2019-04-16T00:49:58.547Z,0
2019-04-16T00:50:56.643Z,0
2019-04-16T00:51:56.752Z,0
2019-04-16T00:52:57.854Z,0
2019-04-16T00:53:57.881Z,0
2019-04-16T00:54:57.019Z,0
2019-04-16T00:55:56.985Z,0
2019-04-16T00:56:57.069Z,0
2019-04-16T00:57:57.146Z,0
2019-04-16T00:58:57.215Z,0
2019-04-16T00:59:57.254Z,0
2019-04-16T01:00:57.310Z,0
2019-04-16T01:01:57.401Z,0
2019-04-16T01:02:57.482Z,0
2019-04-16T01:03:57.531Z,0
2019-04-16T01:04:57.616Z,0
2019-04-16T01:05:57.680Z,0
2019-04-16T01:06:58.786Z,0
2019-04-16T01:07:57.859Z,0
2019-04-16T01:08:57.910Z,0
2019-04-16T01:09:57.975Z,0
2019-04-16T01:10:58.031Z,0
2019-04-16T01:11:58.139Z,0
2019-04-16T01:12:58.261Z,0
2019-04-16T01:13:58.306Z,0
2019-04-16T01:15:00.363Z,0
2019-04-16T01:16:02.420Z,0
2019-04-16T01:16:58.501Z,0
2019-04-16T01:17:58.585Z,0
2019-04-16T01:18:59.621Z,0
2019-04-16T01:19:59.693Z,0
2019-04-16T01:20:58.752Z,0
2019-04-16T01:21:58.841Z,0
2019-04-16T01:22:59.109Z,0
2019-04-16T01:23:59.171Z,0
2019-04-16T01:24:59.231Z,0
2019-04-16T01:25:59.348Z,0
2019-04-16T01:26:59.436Z,0
2019-04-16T01:28:00.599Z,0
2019-04-16T01:29:02.426Z,0
2019-04-16T01:29:59.583Z,0
2019-04-16T01:31:00.475Z,0
2019-04-16T01:32:00.502Z,0
2019-04-16T01:33:00.789Z,0
2019-04-16T01:33:59.670Z,0
2019-04-16T01:34:59.744Z,0
2019-04-16T01:35:59.802Z,0
2019-04-16T01:36:59.847Z,0
2019-04-16T01:37:59.947Z,0
2019-04-16T01:39:14.045Z,0
2019-04-16T01:40:01.054Z,0
2019-04-16T01:41:00.109Z,0
2019-04-16T01:42:00.172Z,0
2019-04-16T01:43:00.230Z,0
2019-04-16T01:44:00.322Z,0
2019-04-16T01:45:00.868Z,0
2019-04-16T01:46:02.046Z,0
2019-04-16T01:47:03.280Z,0
2019-04-16T01:48:00.500Z,0
2019-04-16T01:49:01.593Z,0
2019-04-16T01:50:01.637Z,0
2019-04-16T01:51:01.687Z,0
2019-04-16T01:52:00.748Z,0
2019-04-16T01:53:00.807Z,0
2019-04-16T01:54:00.996Z,0
2019-04-16T01:55:00.879Z,0
2019-04-16T01:56:00.955Z,0
2019-04-16T01:57:01.169Z,0
2019-04-16T01:58:02.670Z,0
2019-04-16T01:59:04.497Z,0
2019-04-16T02:00:01.157Z,0
2019-04-16T02:01:02.189Z,0
2019-04-16T02:02:02.218Z,0
2019-04-16T02:03:01.291Z,0
2019-04-16T02:04:01.380Z,0
2019-04-16T02:05:01.443Z,0
2019-04-16T02:06:01.495Z,0
2019-04-16T02:07:02.536Z,0
2019-04-16T02:08:01.586Z,0
2019-04-16T02:09:03.021Z,0
2019-04-16T02:10:05.889Z,0
2019-04-16T02:11:01.748Z,0
2019-04-16T02:12:02.783Z,0
2019-04-16T02:13:02.831Z,0
2019-04-16T02:14:01.912Z,0
2019-04-16T02:15:01.965Z,0
2019-04-16T02:16:02.035Z,0
2019-04-16T02:17:02.114Z,0
2019-04-16T02:18:02.162Z,0
2019-04-16T02:19:02.672Z,0
2019-04-16T02:20:05.800Z,0
2019-04-16T02:21:02.330Z,0
2019-04-16T02:22:03.381Z,0
2019-04-16T02:23:03.430Z,0
2019-04-16T02:24:02.531Z,0
2019-04-16T02:25:02.587Z,0
2019-04-16T02:26:02.656Z,0
2019-04-16T02:27:02.713Z,0
2019-04-16T02:28:02.795Z,0
2019-04-16T02:29:02.902Z,0
2019-04-16T02:30:04.809Z,0
2019-04-16T02:31:03.030Z,0
2019-04-16T02:32:04.059Z,0
2019-04-16T02:33:03.105Z,0
2019-04-16T02:34:03.198Z,0
2019-04-16T02:35:03.262Z,0
2019-04-16T02:36:03.318Z,0
2019-04-16T02:37:03.630Z,0
2019-04-16T02:38:10.344Z,0
2019-04-16T02:39:04.494Z,0
2019-04-16T02:40:03.546Z,0
2019-04-16T02:41:04.595Z,0
2019-04-16T02:42:03.657Z,0
2019-04-16T02:43:05.759Z,0
2019-04-16T02:44:03.762Z,0
2019-04-16T02:45:04.800Z,0
2019-04-16T02:46:03.848Z,0
2019-04-16T02:47:06.033Z,0
2019-04-16T02:48:03.959Z,0
2019-04-16T02:49:05.027Z,0
2019-04-16T02:50:04.097Z,0
2019-04-16T02:51:06.867Z,0
2019-04-16T02:52:04.179Z,0
2019-04-16T02:53:05.233Z,0
2019-04-16T02:54:04.277Z,0
2019-04-16T02:55:08.931Z,0
2019-04-16T02:56:04.372Z,0
2019-04-16T02:57:05.429Z,0
2019-04-16T02:58:04.462Z,0
2019-04-16T02:59:09.120Z,0
2019-04-16T03:00:05.562Z,0
2019-04-16T03:01:04.619Z,0
2019-04-16T03:02:04.692Z,0
2019-04-16T03:03:04.753Z,0
2019-04-16T03:04:04.809Z,0
2019-04-16T03:05:04.917Z,0
2019-04-16T03:06:04.961Z,0
2019-04-16T03:07:05.010Z,0
2019-04-16T03:08:05.914Z,0
2019-04-16T03:09:05.336Z,0
2019-04-16T03:10:05.196Z,0
2019-04-16T03:11:06.225Z,0
2019-04-16T03:12:06.295Z,0
2019-04-16T03:13:05.352Z,0
2019-04-16T03:14:05.390Z,0
2019-04-16T03:15:05.457Z,0
2019-04-16T03:16:06.372Z,0
2019-04-16T03:17:06.758Z,0
2019-04-16T03:18:05.655Z,0
2019-04-16T03:19:06.697Z,0
2019-04-16T03:20:05.788Z,0
2019-04-16T03:21:05.870Z,0
2019-04-16T03:22:05.917Z,0
2019-04-16T03:23:06.749Z,0
2019-04-16T03:24:09.039Z,0
2019-04-16T03:25:06.120Z,0
2019-04-16T03:26:07.175Z,0
2019-04-16T03:27:07.254Z,0
2019-04-16T03:28:06.310Z,0
2019-04-16T03:29:06.356Z,0
2019-04-16T03:30:06.431Z,0
2019-04-16T03:31:08.617Z,0
2019-04-16T03:32:12.280Z,0
2019-04-16T03:33:12.259Z,0
2019-04-16T03:34:07.529Z,0
2019-04-16T03:35:06.586Z,0
2019-04-16T03:36:06.666Z,0
2019-04-16T03:37:06.705Z,0
2019-04-16T03:38:06.755Z,0
2019-04-16T03:39:11.931Z,0
2019-04-16T03:40:15.696Z,0
2019-04-16T03:41:07.855Z,0
2019-04-16T03:42:06.911Z,0
2019-04-16T03:43:06.998Z,0
2019-04-16T03:44:07.063Z,0
2019-04-16T03:45:08.896Z,0
2019-04-16T03:46:12.039Z,0
2019-04-16T03:47:07.257Z,0
2019-04-16T03:48:08.296Z,0
2019-04-16T03:49:07.355Z,0
2019-04-16T03:50:07.423Z,0
2019-04-16T03:51:07.506Z,0
2019-04-16T03:52:08.352Z,0
2019-04-16T03:53:07.619Z,0
2019-04-16T03:54:08.665Z,0
2019-04-16T03:55:07.797Z,0
2019-04-16T03:56:07.840Z,0
2019-04-16T03:57:07.913Z,0
2019-04-16T03:58:07.934Z,0
2019-04-16T03:59:11.566Z,0
2019-04-16T04:00:11.007Z,0
2019-04-16T04:01:08.103Z,0
2019-04-16T04:02:09.231Z,0
2019-04-16T04:03:09.191Z,0
2019-04-16T04:04:08.357Z,0
2019-04-16T04:05:08.248Z,0
2019-04-16T04:06:08.454Z,0
2019-04-16T04:07:08.688Z,0
2019-04-16T04:08:08.493Z,0
2019-04-16T04:09:09.531Z,0
2019-04-16T04:10:09.577Z,0
2019-04-16T04:11:10.663Z,0
2019-04-16T04:12:09.576Z,0
2019-04-16T04:13:08.765Z,0
2019-04-16T04:14:09.810Z,0
2019-04-16T04:15:08.882Z,0
2019-04-16T04:16:09.013Z,0
2019-04-16T04:17:09.080Z,0
2019-04-16T04:18:11.546Z,0
2019-04-16T04:19:13.982Z,0
2019-04-16T04:20:09.237Z,0
2019-04-16T04:21:10.367Z,0
2019-04-16T04:22:10.425Z,0
2019-04-16T04:23:09.473Z,0
2019-04-16T04:24:09.540Z,0
2019-04-16T04:25:09.600Z,0
2019-04-16T04:26:10.216Z,0
2019-04-16T04:27:12.779Z,0
2019-04-16T04:28:10.783Z,0
2019-04-16T04:29:10.841Z,0
2019-04-16T04:30:09.896Z,0
2019-04-16T04:31:09.964Z,0
2019-04-16T04:32:10.048Z,0
2019-04-16T04:33:10.424Z,0
2019-04-16T04:34:10.935Z,0
2019-04-16T04:35:11.348Z,0
2019-04-16T04:36:11.254Z,5.625
2019-04-16T04:37:11.372Z,5.625
2019-04-16T04:38:10.468Z,5.625
2019-04-16T04:39:14.864Z,5.625
2019-04-16T04:40:12.724Z,5.625
2019-04-16T04:41:10.730Z,5.625
2019-04-16T04:42:11.843Z,5.625
2019-04-16T04:43:11.912Z,5.625
2019-04-16T04:44:11.020Z,5.625
2019-04-16T04:45:11.097Z,5.625
2019-04-16T04:46:14.336Z,11.25
2019-04-16T04:47:11.435Z,11.25
2019-04-16T04:48:12.516Z,11.25
2019-04-16T04:49:12.542Z,11.25
2019-04-16T04:50:11.710Z,11.25
2019-04-16T04:51:12.692Z,11.25
2019-04-16T04:52:14.435Z,11.25
2019-04-16T04:53:11.852Z,11.25
2019-04-16T04:54:13.003Z,16.875
2019-04-16T04:55:12.995Z,16.875
2019-04-16T04:56:11.998Z,16.875
2019-04-16T04:57:13.188Z,16.875
2019-04-16T04:58:12.212Z,16.875
2019-04-16T04:59:12.215Z,16.875
2019-04-16T05:00:12.179Z,16.875
2019-04-16T05:01:13.830Z,22.5
2019-04-16T05:02:14.249Z,22.5
2019-04-16T05:03:15.472Z,22.5
2019-04-16T05:04:12.505Z,22.5
2019-04-16T05:05:13.650Z,22.5
2019-04-16T05:06:13.816Z,22.5
2019-04-16T05:07:12.806Z,22.5
2019-04-16T05:08:12.845Z,22.5
2019-04-16T05:09:12.844Z,28.125
2019-04-16T05:10:12.834Z,28.125
2019-04-16T05:11:15.444Z,28.125
2019-04-16T05:12:12.844Z,28.125
2019-04-16T05:13:14.026Z,28.125
2019-04-16T05:14:14.022Z,28.125
2019-04-16T05:15:13.056Z,28.125
2019-04-16T05:16:13.069Z,33.75
2019-04-16T05:17:13.062Z,33.75
2019-04-16T05:18:13.089Z,33.75
2019-04-16T05:19:14.776Z,33.75
2019-04-16T05:20:15.345Z,33.75
2019-04-16T05:21:17.542Z,33.75
2019-04-16T05:22:13.229Z,33.75
2019-04-16T05:23:14.462Z,33.75
2019-04-16T05:24:14.451Z,39.375
2019-04-16T05:25:13.433Z,39.375
2019-04-16T05:26:13.444Z,39.375
2019-04-16T05:27:13.441Z,39.375
2019-04-16T05:28:13.530Z,39.375
2019-04-16T05:29:16.826Z,39.375
2019-04-16T05:30:13.471Z,39.375
2019-04-16T05:31:14.459Z,39.375
2019-04-16T05:32:14.451Z,45
2019-04-16T05:33:13.517Z,45
2019-04-16T05:34:16.871Z,45
2019-04-16T05:35:13.542Z,45
2019-04-16T05:36:15.078Z,45
2019-04-16T05:37:16.346Z,45
2019-04-16T05:38:13.821Z,45
2019-04-16T05:39:14.838Z,45
2019-04-16T05:40:14.043Z,50.625
2019-04-16T05:41:17.525Z,50.625
2019-04-16T05:42:15.191Z,50.625
2019-04-16T05:43:15.167Z,50.625
2019-04-16T05:44:15.172Z,50.625
2019-04-16T05:45:14.178Z,50.625
2019-04-16T05:46:14.171Z,50.625
2019-04-16T05:47:16.706Z,50.625
2019-04-16T05:48:14.326Z,56.25
2019-04-16T05:49:15.526Z,56.25
2019-04-16T05:50:15.506Z,56.25
2019-04-16T05:51:14.672Z,56.25
2019-04-16T05:52:14.707Z,56.25
2019-04-16T05:53:14.705Z,56.25
2019-04-16T05:54:14.733Z,56.25
2019-04-16T05:55:17.578Z,56.25
2019-04-16T05:56:14.731Z,56.25
2019-04-16T05:57:15.734Z,61.875
2019-04-16T05:58:15.735Z,61.875
2019-04-16T05:59:15.116Z,61.875
2019-04-16T06:00:14.857Z,61.875
2019-04-16T06:01:14.850Z,61.875
2019-04-16T06:02:18.157Z,61.875
2019-04-16T06:03:15.180Z,61.875
2019-04-16T06:04:16.155Z,61.875
2019-04-16T06:05:16.370Z,61.875
2019-04-16T06:06:16.376Z,67.5
2019-04-16T06:07:15.393Z,67.5
2019-04-16T06:08:15.375Z,67.5
2019-04-16T06:09:15.430Z,67.5
2019-04-16T06:10:17.664Z,67.5
2019-04-16T06:11:26.959Z,67.5
2019-04-16T06:12:16.613Z,67.5
2019-04-16T06:13:15.603Z,67.5
2019-04-16T06:14:17.504Z,67.5
2019-04-16T06:15:21.062Z,73.125
2019-04-16T06:16:15.898Z,73.125
2019-04-16T06:17:17.064Z,73.125
2019-04-16T06:18:18.099Z,73.125
2019-04-16T06:19:16.368Z,73.125
2019-04-16T06:20:18.921Z,73.125
2019-04-16T06:21:16.240Z,73.125
2019-04-16T06:22:17.226Z,73.125
2019-04-16T06:23:17.215Z,73.125
2019-04-16T06:24:16.261Z,78.75
2019-04-16T06:25:16.245Z,78.75
2019-04-16T06:26:17.078Z,78.75
2019-04-16T06:27:16.400Z,78.75
2019-04-16T06:28:16.388Z,78.75
2019-04-16T06:29:16.388Z,78.75
2019-04-16T06:30:17.415Z,78.75
2019-04-16T06:31:16.429Z,78.75
2019-04-16T06:32:16.461Z,78.75
2019-04-16T06:33:16.502Z,84.375
2019-04-16T06:34:16.516Z,84.375
2019-04-16T06:35:17.533Z,84.375
2019-04-16T06:36:16.533Z,84.375
2019-04-16T06:37:20.240Z,84.375
2019-04-16T06:38:17.560Z,84.375
2019-04-16T06:39:16.594Z,84.375
2019-04-16T06:40:16.617Z,84.375
2019-04-16T06:41:16.655Z,84.375
2019-04-16T06:42:20.892Z,84.375
2019-04-16T06:43:16.669Z,90
2019-04-16T06:44:17.658Z,90
2019-04-16T06:45:16.812Z,90
2019-04-16T06:46:16.866Z,90
2019-04-16T06:47:16.856Z,90
2019-04-16T06:48:16.994Z,90
2019-04-16T06:49:18.354Z,90
2019-04-16T06:50:30.069Z,90
2019-04-16T06:51:18.456Z,90
2019-04-16T06:52:18.060Z,95.625
2019-04-16T06:53:19.428Z,95.625
2019-04-16T06:54:18.748Z,95.625
2019-04-16T06:55:18.735Z,95.625
2019-04-16T06:56:20.180Z,95.625
2019-04-16T06:57:17.777Z,95.625
2019-04-16T06:58:18.841Z,95.625
2019-04-16T06:59:18.826Z,95.625
2019-04-16T07:00:18.859Z,95.625
2019-04-16T07:01:17.872Z,95.625
2019-04-16T07:02:17.898Z,95.625
2019-04-16T07:03:17.906Z,95.625
2019-04-16T07:04:19.055Z,95.625
2019-04-16T07:05:19.216Z,95.625
2019-04-16T07:06:18.251Z,95.625
2019-04-16T07:07:18.307Z,101.25
2019-04-16T07:08:19.568Z,101.25
2019-04-16T07:09:23.254Z,101.25
2019-04-16T07:10:19.459Z,101.25
2019-04-16T07:11:19.449Z,101.25
2019-04-16T07:12:18.538Z,101.25
2019-04-16T07:13:18.538Z,101.25
2019-04-16T07:14:18.536Z,101.25
2019-04-16T07:15:22.033Z,101.25
2019-04-16T07:16:19.838Z,106.875
2019-04-16T07:17:20.026Z,106.875
2019-04-16T07:18:20.671Z,106.875
2019-04-16T07:19:19.091Z,106.875
2019-04-16T07:20:19.098Z,106.875
2019-04-16T07:21:19.100Z,106.875
2019-04-16T07:22:21.177Z,106.875
2019-04-16T07:23:24.103Z,106.875
2019-04-16T07:24:22.217Z,112.5
2019-04-16T07:25:20.691Z,112.5
2019-04-16T07:26:20.612Z,112.5
2019-04-16T07:27:20.922Z,112.5
2019-04-16T07:28:25.080Z,112.5
2019-04-16T07:29:19.547Z,112.5
2019-04-16T07:30:21.216Z,112.5
2019-04-16T07:31:32.536Z,118.125
2019-04-16T07:32:20.742Z,118.125
2019-04-16T07:33:19.701Z,118.125
2019-04-16T07:34:19.862Z,118.125
2019-04-16T07:35:19.898Z,118.125
2019-04-16T07:36:20.910Z,118.125
2019-04-16T07:37:19.911Z,123.75
2019-04-16T07:38:19.971Z,123.75
2019-04-16T07:39:29.934Z,123.75
2019-04-16T07:40:21.121Z,123.75
2019-04-16T07:41:20.102Z,123.75
2019-04-16T07:42:22.066Z,123.75
2019-04-16T07:43:20.179Z,129.375
2019-04-16T07:44:21.211Z,129.375
2019-04-16T07:45:20.210Z,129.375
2019-04-16T07:46:20.213Z,129.375
2019-04-16T07:47:20.787Z,129.375
2019-04-16T07:48:22.496Z,129.375
2019-04-16T07:49:20.264Z,135
2019-04-16T07:50:20.271Z,135
2019-04-16T07:51:20.279Z,135
2019-04-16T07:52:20.302Z,135
2019-04-16T07:53:20.321Z,135
2019-04-16T07:54:21.700Z,135
2019-04-16T07:55:20.352Z,140.625
2019-04-16T07:56:20.517Z,140.625
2019-04-16T07:57:21.354Z,140.625
2019-04-16T07:58:20.355Z,146.25
2019-04-16T07:59:20.406Z,146.25
2019-04-16T08:00:20.435Z,151.875
2019-04-16T08:01:20.443Z,157.5
2019-04-16T08:02:21.315Z,157.5
2019-04-16T08:03:20.451Z,157.5
2019-04-16T08:04:28.600Z,163.125
2019-04-16T08:05:21.602Z,163.125
2019-04-16T08:06:20.597Z,163.125
2019-04-16T08:07:21.336Z,168.75
2019-04-16T08:08:24.265Z,168.75
2019-04-16T08:09:20.615Z,168.75
2019-04-16T08:10:21.760Z,185.625
2019-04-16T08:11:23.011Z,528.75
2019-04-16T08:12:29.765Z,838.125
2019-04-16T08:13:21.990Z,742.5
2019-04-16T08:14:22.099Z,725.625
2019-04-16T08:15:21.151Z,826.875
2019-04-16T08:16:21.152Z,871.875
2019-04-16T08:17:21.177Z,922.5
2019-04-16T08:18:21.196Z,871.875
2019-04-16T08:19:21.234Z,753.75
2019-04-16T08:20:22.202Z,618.75
2019-04-16T08:21:22.639Z,585
2019-04-16T08:22:21.411Z,742.5
2019-04-16T08:23:21.428Z,697.5
2019-04-16T08:24:24.286Z,691.875
2019-04-16T08:25:21.499Z,675
2019-04-16T08:26:22.500Z,697.5
2019-04-16T08:27:21.489Z,804.375
2019-04-16T08:28:21.500Z,798.75
2019-04-16T08:29:21.581Z,652.5
2019-04-16T08:30:21.584Z,590.625
2019-04-16T08:31:21.611Z,478.125
2019-04-16T08:32:21.643Z,495
2019-04-16T08:33:21.643Z,489.375
2019-04-16T08:34:22.842Z,438.75
2019-04-16T08:35:21.857Z,675
2019-04-16T08:36:21.867Z,731.25
2019-04-16T08:37:21.864Z,652.5
2019-04-16T08:38:21.939Z,753.75
2019-04-16T08:39:22.067Z,646.875
2019-04-16T08:40:22.115Z,675
2019-04-16T08:41:22.104Z,815.625
2019-04-16T08:42:24.679Z,922.5
2019-04-16T08:43:23.109Z,905.625
2019-04-16T08:44:23.145Z,793.125
2019-04-16T08:45:22.214Z,725.625
2019-04-16T08:46:22.246Z,686.25
2019-04-16T08:47:22.273Z,624.375
2019-04-16T08:48:22.271Z,613.125
2019-04-16T08:49:23.005Z,646.875
2019-04-16T08:50:25.760Z,495
2019-04-16T08:51:29.990Z,455.625
2019-04-16T08:52:23.420Z,500.625
2019-04-16T08:53:22.457Z,427.5
2019-04-16T08:54:22.454Z,433.125
2019-04-16T08:55:23.480Z,399.375
2019-04-16T08:56:22.519Z,630
2019-04-16T08:57:22.528Z,579.375
2019-04-16T08:58:23.526Z,495
2019-04-16T08:59:22.568Z,601.875
2019-04-16T09:00:22.642Z,776.25
2019-04-16T09:01:23.491Z,911.25
2019-04-16T09:02:23.454Z,736.875
2019-04-16T09:03:22.842Z,832.5
2019-04-16T09:04:23.876Z,871.875
2019-04-16T09:05:23.942Z,967.5
2019-04-16T09:06:23.175Z,978.75
2019-04-16T09:07:22.960Z,742.5
2019-04-16T09:08:22.967Z,618.75
2019-04-16T09:09:24.654Z,697.5
2019-04-16T09:10:23.898Z,928.125
2019-04-16T09:11:24.114Z,748.125
2019-04-16T09:12:24.100Z,686.25
2019-04-16T09:13:23.082Z,641.25
2019-04-16T09:14:25.614Z,742.5
2019-04-16T09:15:23.205Z,556.875
2019-04-16T09:16:23.256Z,410.625
2019-04-16T09:17:23.269Z,348.75
2019-04-16T09:18:23.442Z,669.375
2019-04-16T09:19:23.552Z,984.375
2019-04-16T09:20:23.613Z,838.125
2019-04-16T09:21:23.669Z,579.375
2019-04-16T09:22:23.712Z,663.75
2019-04-16T09:23:26.570Z,916.875
2019-04-16T09:24:23.771Z,1231.875
2019-04-16T09:25:23.907Z,1096.875
2019-04-16T09:26:24.064Z,916.875
2019-04-16T09:27:28.300Z,849.375
2019-04-16T09:28:26.172Z,736.875
2019-04-16T09:29:24.170Z,680.625
2019-04-16T09:30:24.173Z,1051.875
2019-04-16T09:31:24.355Z,1046.25
2019-04-16T09:32:27.459Z,978.75
2019-04-16T09:33:24.554Z,950.625
2019-04-16T09:34:25.672Z,748.125
2019-04-16T09:35:24.645Z,945
2019-04-16T09:36:24.674Z,787.5
2019-04-16T09:37:25.386Z,483.75
2019-04-16T09:38:25.798Z,399.375
2019-04-16T09:39:24.879Z,438.75
2019-04-16T09:40:24.936Z,472.5
2019-04-16T09:41:25.182Z,331.875
2019-04-16T09:42:25.173Z,421.875
2019-04-16T09:43:25.158Z,759.375
2019-04-16T09:44:29.489Z,866.25
2019-04-16T09:45:26.277Z,489.375
2019-04-16T09:46:48.717Z,450
2019-04-16T09:47:28.862Z,410.625
2019-04-16T09:48:25.658Z,742.5
2019-04-16T09:49:26.775Z,708.75
2019-04-16T09:50:26.894Z,596.25
2019-04-16T09:51:26.355Z,646.875
2019-04-16T09:52:26.132Z,736.875
2019-04-16T09:53:33.362Z,478.125
2019-04-16T09:54:27.234Z,427.5
2019-04-16T09:55:26.375Z,388.125
2019-04-16T09:56:28.764Z,388.125
2019-04-16T09:57:30.828Z,534.375
2019-04-16T09:58:26.497Z,641.25
2019-04-16T09:59:27.710Z,871.875
2019-04-16T10:00:26.795Z,916.875
2019-04-16T10:01:26.830Z,916.875
2019-04-16T10:02:26.833Z,776.25
2019-04-16T10:03:28.420Z,691.875
2019-04-16T10:04:27.004Z,506.25
2019-04-16T10:05:29.550Z,410.625
2019-04-16T10:06:27.132Z,270
2019-04-16T10:07:27.200Z,241.875
2019-04-16T10:08:29.309Z,270
2019-04-16T10:09:27.318Z,275.625
2019-04-16T10:10:27.828Z,292.5
2019-04-16T10:11:27.524Z,365.625
2019-04-16T10:12:28.742Z,421.875
2019-04-16T10:13:31.710Z,517.5
2019-04-16T10:14:28.854Z,478.125
2019-04-16T10:15:27.875Z,618.75
2019-04-16T10:16:27.855Z,630
2019-04-16T10:17:28.046Z,579.375
2019-04-16T10:18:28.032Z,433.125
2019-04-16T10:19:29.135Z,444.375
2019-04-16T10:20:28.284Z,877.5
2019-04-16T10:21:29.140Z,995.625
2019-04-16T10:22:28.437Z,534.375
2019-04-16T10:23:28.446Z,725.625
2019-04-16T10:24:28.465Z,956.25
2019-04-16T10:25:28.590Z,1040.625
2019-04-16T10:26:28.616Z,1029.375
2019-04-16T10:27:32.219Z,945
2019-04-16T10:28:28.677Z,804.375
2019-04-16T10:29:29.763Z,624.375
2019-04-16T10:30:30.147Z,838.125
2019-04-16T10:31:28.984Z,1057.5
2019-04-16T10:32:29.143Z,1147.5
2019-04-16T10:33:29.107Z,1046.25
2019-04-16T10:34:29.222Z,838.125
2019-04-16T10:35:30.327Z,601.875
2019-04-16T10:36:29.471Z,562.5
2019-04-16T10:37:30.604Z,725.625
2019-04-16T10:38:29.561Z,1035
2019-04-16T10:39:29.738Z,1265.625
2019-04-16T10:40:29.820Z,832.5
2019-04-16T10:41:29.941Z,956.25
2019-04-16T10:42:30.043Z,1063.125
2019-04-16T10:43:43.535Z,770.625
2019-04-16T10:44:31.139Z,523.125
2019-04-16T10:45:30.256Z,703.125
2019-04-16T10:46:30.253Z,922.5
2019-04-16T10:47:30.358Z,1001.25
2019-04-16T10:48:30.408Z,871.875
2019-04-16T10:49:30.398Z,860.625
2019-04-16T10:50:30.419Z,1057.5
2019-04-16T10:51:30.548Z,922.5
2019-04-16T10:52:30.646Z,1108.125
2019-04-16T10:53:30.839Z,945
2019-04-16T10:54:33.652Z,1119.375
2019-04-16T10:55:31.047Z,1147.5
2019-04-16T10:56:31.164Z,1141.875
2019-04-16T10:57:31.304Z,1074.375
2019-04-16T10:58:32.441Z,905.625
2019-04-16T10:59:31.558Z,883.125
2019-04-16T11:00:31.750Z,894.375
2019-04-16T11:01:34.950Z,1035
2019-04-16T11:02:31.688Z,810
2019-04-16T11:03:34.368Z,916.875
2019-04-16T11:04:31.959Z,731.25
2019-04-16T11:05:33.212Z,973.125
2019-04-16T11:06:32.136Z,1282.5
2019-04-16T11:07:32.494Z,1338.75
2019-04-16T11:08:32.754Z,1355.625
2019-04-16T11:09:32.701Z,1417.5
2019-04-16T11:10:32.958Z,1513.125
2019-04-16T11:11:32.717Z,1563.75
2019-04-16T11:12:33.143Z,1614.375
2019-04-16T11:13:33.156Z,1620
2019-04-16T11:14:32.977Z,1496.25
2019-04-16T11:15:33.048Z,877.5
2019-04-16T11:16:35.870Z,984.375
2019-04-16T11:17:33.172Z,1344.375
2019-04-16T11:18:34.243Z,1591.875
2019-04-16T11:19:33.374Z,1704.375
2019-04-16T11:20:33.524Z,1715.625
2019-04-16T11:21:33.649Z,1726.875
2019-04-16T11:22:33.775Z,1755
2019-04-16T11:23:33.901Z,1788.75
2019-04-16T11:24:34.055Z,1828.125
2019-04-16T11:25:34.153Z,1845
2019-04-16T11:26:34.274Z,1845
2019-04-16T11:27:34.394Z,1850.625
2019-04-16T11:28:34.520Z,1878.75
2019-04-16T11:29:34.870Z,1940.625
2019-04-16T11:30:35.834Z,1974.375
2019-04-16T11:31:34.920Z,1968.75
2019-04-16T11:32:38.878Z,1963.125
2019-04-16T11:33:35.143Z,1918.125
2019-04-16T11:34:35.299Z,1867.5
2019-04-16T11:35:35.374Z,1850.625
2019-04-16T11:36:35.511Z,1839.375
2019-04-16T11:37:36.302Z,1811.25
2019-04-16T11:38:36.727Z,1805.625
2019-04-16T11:39:35.805Z,1766.25
2019-04-16T11:40:35.759Z,1681.875
2019-04-16T11:41:35.836Z,1603.125
2019-04-16T11:42:35.966Z,1597.5
2019-04-16T11:43:36.090Z,1597.5
2019-04-16T11:44:36.332Z,1586.25
2019-04-16T11:45:36.249Z,1597.5
2019-04-16T11:46:36.379Z,1603.125
2019-04-16T11:47:36.525Z,1620
2019-04-16T11:48:37.457Z,1642.5
2019-04-16T11:49:36.722Z,1698.75
2019-04-16T11:50:36.804Z,1777.5
2019-04-16T11:51:36.962Z,1783.125
2019-04-16T11:52:39.791Z,1788.75
2019-04-16T11:53:37.166Z,1771.875
2019-04-16T11:54:37.284Z,1760.625
2019-04-16T11:55:38.485Z,1726.875
2019-04-16T11:56:37.636Z,1698.75
2019-04-16T11:57:37.758Z,1710
2019-04-16T11:58:37.875Z,1738.125
2019-04-16T11:59:38.358Z,1783.125
2019-04-16T12:00:38.144Z,1788.75
2019-04-16T12:01:38.116Z,1794.375
2019-04-16T12:02:38.784Z,1788.75
2019-04-16T12:03:38.336Z,1732.5
2019-04-16T12:04:38.504Z,1648.125
2019-04-16T12:05:38.642Z,1597.5
2019-04-16T12:06:38.824Z,1591.875
2019-04-16T12:07:38.890Z,1620
2019-04-16T12:08:40.007Z,1693.125
2019-04-16T12:09:39.107Z,1760.625
2019-04-16T12:10:39.283Z,1794.375
2019-04-16T12:11:39.249Z,1811.25
2019-04-16T12:12:39.399Z,1794.375
2019-04-16T12:13:39.528Z,1738.125
2019-04-16T12:14:42.400Z,1755
2019-04-16T12:15:39.834Z,1777.5
2019-04-16T12:16:39.949Z,1800
2019-04-16T12:17:40.078Z,1845
2019-04-16T12:18:40.215Z,1968.75
2019-04-16T12:19:40.283Z,2075.625
2019-04-16T12:20:40.394Z,2109.375
2019-04-16T12:21:40.753Z,2115
2019-04-16T12:22:40.666Z,2070
2019-04-16T12:23:40.772Z,1968.75
2019-04-16T12:24:41.017Z,1890
2019-04-16T12:25:41.047Z,1923.75
2019-04-16T12:26:41.146Z,1980
2019-04-16T12:27:41.277Z,1996.875
2019-04-16T12:28:43.174Z,2008.125
2019-04-16T12:29:41.510Z,2019.375
2019-04-16T12:30:41.692Z,1968.75
2019-04-16T12:31:41.835Z,1923.75
2019-04-16T12:32:41.973Z,1906.875
2019-04-16T12:33:41.954Z,1912.5
2019-04-16T12:34:42.137Z,1951.875
2019-04-16T12:35:45.286Z,1974.375
2019-04-16T12:36:42.436Z,2002.5
2019-04-16T12:37:42.502Z,2047.5
2019-04-16T12:38:42.643Z,2064.375
2019-04-16T12:39:42.775Z,2053.125
2019-04-16T12:40:42.857Z,2025
2019-04-16T12:41:43.024Z,1996.875
2019-04-16T12:42:42.967Z,1980
2019-04-16T12:43:43.063Z,1951.875
2019-04-16T12:44:45.828Z,1929.375
2019-04-16T12:45:43.252Z,1974.375
2019-04-16T12:46:44.397Z,1991.25
2019-04-16T12:47:43.626Z,1951.875
2019-04-16T12:48:43.692Z,1884.375
2019-04-16T12:49:43.835Z,1873.125
2019-04-16T12:50:43.933Z,1861.875
2019-04-16T12:51:45.060Z,1800
2019-04-16T12:52:44.172Z,1788.75
2019-04-16T12:53:45.300Z,1805.625
2019-04-16T12:54:45.388Z,1771.875
2019-04-16T12:55:44.502Z,1687.5
2019-04-16T12:56:44.672Z,1665
2019-04-16T12:57:47.114Z,1681.875
2019-04-16T12:58:44.719Z,1659.375
2019-04-16T12:59:48.463Z,1625.625
2019-04-16T13:00:45.897Z,1620
2019-04-16T13:01:44.991Z,1648.125
2019-04-16T13:02:45.603Z,1687.5
2019-04-16T13:03:46.511Z,1710
2019-04-16T13:04:48.696Z,1704.375
2019-04-16T13:05:45.470Z,1631.25
2019-04-16T13:06:46.578Z,1575
2019-04-16T13:07:45.724Z,1541.25
2019-04-16T13:08:45.833Z,1501.875
2019-04-16T13:09:46.948Z,1513.125
2019-04-16T13:10:46.048Z,1586.25
2019-04-16T13:11:46.149Z,1642.5
2019-04-16T13:12:46.307Z,1670.625